Time;durP1;ratioP1;P1;durP2;ratioP2;P2;SDS_P1;SDS_P2;PMS_P1;PMS_P2;Temp;Humidity;BMP_temperature;BMP_pressure;BME280_temperature;BME280_humidity;BME280_pressure;Samples;Min_cycle;Max_cycle;Signal;HPM_P1;HPM_P2
2022/05/20 00:00:16;;;;;;;;;;;11.70;99.90;;;;;;5020625;28;20384;-72
2022/05/20 00:02:41;;;;;;;;;;;11.60;99.90;;;;;;5035600;28;20283;-71
2022/05/20 00:05:09;;;;;;;;;;;11.60;99.90;;;;;;5053481;28;19920;-71
2022/05/20 00:07:35;;;;;;;;;;;11.60;99.90;;;;;;5035740;28;19968;-71
2022/05/20 00:10:01;;;;;;;;;;;11.60;99.90;;;;;;5053668;28;19972;-72
2022/05/20 00:12:26;;;;;;;;;;;11.60;99.90;;;;;;5016399;28;19929;-71
2022/05/20 00:14:52;;;;;;;;;;;11.60;99.90;;;;;;5015512;28;19968;-70
2022/05/20 00:17:17;;;;;;;;;;;11.60;99.90;;;;;;5033822;28;19932;-71
2022/05/20 00:19:44;;;;;;;;;;;11.60;99.90;;;;;;5033539;28;20312;-71
2022/05/20 00:22:11;;;;;;;;;;;11.80;99.90;;;;;;5014781;28;19929;-71
2022/05/20 00:25:45;;;;;;;;;;;11.60;99.90;;;;;;5033629;28;19925;-71
2022/05/20 00:27:22;;;;;;;;;;;11.60;99.90;;;;;;5016607;28;19947;-71
2022/05/20 00:29:47;;;;;;;;;;;11.70;99.90;;;;;;5016098;28;19925;-71
2022/05/20 00:32:13;;;;;;;;;;;11.70;99.90;;;;;;5034759;28;19933;-70
2022/05/20 00:34:39;;;;;;;;;;;11.70;99.90;;;;;;5034122;28;19925;-71
2022/05/20 00:37:04;;;;;;;;;;;11.80;99.90;;;;;;5034160;28;19960;-71
2022/05/20 00:39:30;;;;;;;;;;;11.80;99.90;;;;;;5034470;28;19925;-71
2022/05/20 00:41:55;;;;;;;;;;;11.80;99.90;;;;;;5034607;28;20324;-71
2022/05/20 00:44:21;;;;;;;;;;;11.80;99.90;;;;;;5035158;28;20007;-72
2022/05/20 00:46:46;;;;;;;;;;;11.80;99.90;;;;;;5035935;28;19929;-72
2022/05/20 00:49:18;;;;;;;;;;;11.80;99.90;;;;;;5036364;28;19971;-72
2022/05/20 00:51:50;;;;;;;;;;;11.80;99.90;;;;;;5036356;28;19925;-72
2022/05/20 00:54:21;;;;;;;;;;;11.80;99.90;;;;;;5052500;28;19929;-72
2022/05/20 00:57:02;;;;;;;;;;;11.80;99.90;;;;;;5053356;28;20384;-72
2022/05/20 00:59:29;;;;;;;;;;;11.80;99.90;;;;;;5053618;28;19935;-72
2022/05/20 01:01:56;;;;;;;;;;;11.80;99.90;;;;;;5054215;28;19924;-72
2022/05/20 01:04:22;;;;;;;;;;;11.80;99.90;;;;;;5053377;28;19971;-72
2022/05/20 01:09:26;;;;;;;;;;;11.80;99.90;;;;;;5031635;28;19929;-71
2022/05/20 01:11:52;;;;;;;;;;;11.80;99.90;;;;;;5015616;28;20380;-71
2022/05/20 01:14:22;;;;;;;;;;;11.80;99.90;;;;;;5015485;28;19932;-71
2022/05/20 01:16:48;;;;;;;;;;;11.80;99.90;;;;;;5033375;28;19925;-71
2022/05/20 01:19:18;;;;;;;;;;;11.80;99.90;;;;;;5015412;28;19925;-71
2022/05/20 01:21:44;;;;;;;;;;;11.80;99.90;;;;;;5033463;28;19964;-71
2022/05/20 01:24:09;;;;;;;;;;;11.80;99.90;;;;;;5032447;28;19979;-72
2022/05/20 01:26:35;;;;;;;;;;;11.70;99.90;;;;;;5032538;28;19986;-71
2022/05/20 01:29:00;;;;;;;;;;;11.80;99.90;;;;;;5035271;28;19925;-71
2022/05/20 01:31:26;;;;;;;;;;;11.80;99.90;;;;;;5037466;28;19925;-71
2022/05/20 01:33:54;;;;;;;;;;;11.80;99.90;;;;;;5036401;28;19930;-70
2022/05/20 02:03:17;;;;;;;;;;;11.30;99.90;;;;;;2272477;23;19933;-72
2022/05/20 02:06:04;;;;;;;;;;;11.20;99.90;;;;;;5019460;28;19925;-72
2022/05/20 02:08:41;;;;;;;;;;;10.80;99.90;;;;;;5019289;28;19955;-72
2022/05/20 02:11:07;;;;;;;;;;;11.60;99.90;;;;;;5018978;28;20449;-72
2022/05/20 02:13:34;;;;;;;;;;;11.10;99.90;;;;;;5036555;28;19925;-72
2022/05/20 02:16:06;;;;;;;;;;;11.10;99.90;;;;;;5018374;28;19929;-72
2022/05/20 02:18:44;;;;;;;;;;;11.10;99.90;;;;;;5019019;28;19932;-72
2022/05/20 02:21:14;;;;;;;;;;;11.10;99.90;;;;;;5030310;28;19932;-72
2022/05/20 02:23:42;;;;;;;;;;;11.10;99.90;;;;;;5015739;28;19932;-71
2022/05/20 02:26:12;;;;;;;;;;;11.10;99.90;;;;;;4998717;28;19927;-71
2022/05/20 02:28:39;;;;;;;;;;;11.70;99.90;;;;;;5016147;28;19930;-72
2022/05/20 02:49:13;;;;;;;;;;;10.90;99.90;;;;;;4429067;26;19925;-71
2022/05/20 02:51:38;;;;;;;;;;;10.90;99.90;;;;;;5036363;28;20392;-71
2022/05/20 02:54:05;;;;;;;;;;;10.90;99.90;;;;;;5036214;28;19932;-72
2022/05/20 02:56:31;;;;;;;;;;;10.80;99.90;;;;;;5014935;28;19929;-72
2022/05/20 03:04:24;;;;;;;;;;;10.80;99.90;;;;;;5015739;28;19926;-72
2022/05/20 03:06:51;;;;;;;;;;;10.80;99.90;;;;;;5014011;28;19930;-72
2022/05/20 03:09:18;;;;;;;;;;;10.70;99.90;;;;;;5016769;28;19979;-72
2022/05/20 03:11:44;;;;;;;;;;;10.60;99.90;;;;;;5033855;28;19932;-72
2022/05/20 03:22:37;;;;;;;;;;;10.50;99.90;;;;;;5013839;28;19926;-72
2022/05/20 03:25:15;;;;;;;;;;;10.40;99.90;;;;;;5002466;28;19921;-71
2022/05/20 03:27:43;;;;;;;;;;;10.40;99.90;;;;;;4994370;28;20413;-71
2022/05/20 03:30:10;;;;;;;;;;;10.40;99.90;;;;;;4993990;28;20391;-71
2022/05/20 03:32:36;;;;;;;;;;;10.40;99.90;;;;;;4993274;28;19926;-71
2022/05/20 03:35:02;;;;;;;;;;;10.40;99.90;;;;;;5010091;28;19922;-72
2022/05/20 03:37:27;;;;;;;;;;;10.40;99.90;;;;;;4995266;28;19930;-72
2022/05/20 03:39:55;;;;;;;;;;;10.40;99.90;;;;;;4995829;28;19926;-72
2022/05/20 03:42:21;;;;;;;;;;;10.40;99.90;;;;;;4994069;28;20373;-72
2022/05/20 03:44:47;;;;;;;;;;;10.40;99.90;;;;;;4993558;28;19937;-72
2022/05/20 03:47:12;;;;;;;;;;;10.40;99.90;;;;;;4993050;28;19925;-71
2022/05/20 03:49:38;;;;;;;;;;;10.50;99.90;;;;;;4995269;28;19977;-72
2022/05/20 03:52:03;;;;;;;;;;;10.50;99.90;;;;;;4993006;28;20012;-72
2022/05/20 03:54:31;;;;;;;;;;;10.50;99.90;;;;;;4999769;28;20282;-72
2022/05/20 03:57:00;;;;;;;;;;;10.50;99.90;;;;;;5013237;28;19926;-72
2022/05/20 03:59:26;;;;;;;;;;;10.50;99.90;;;;;;5014342;28;19929;-72
2022/05/20 04:01:57;;;;;;;;;;;10.50;99.90;;;;;;5012102;28;19929;-71
2022/05/20 04:04:34;;;;;;;;;;;10.50;99.90;;;;;;5012294;28;19948;-71
2022/05/20 04:07:00;;;;;;;;;;;10.50;99.90;;;;;;5029149;28;19925;-71
2022/05/20 04:09:26;;;;;;;;;;;10.50;99.90;;;;;;5001373;28;19926;-71
2022/05/20 04:11:53;;;;;;;;;;;10.50;99.90;;;;;;4993275;28;19933;-72
2022/05/20 04:14:19;;;;;;;;;;;10.50;99.90;;;;;;4993450;28;19940;-72
2022/05/20 04:16:44;;;;;;;;;;;10.50;99.90;;;;;;4994402;28;19926;-71
2022/05/20 04:19:11;;;;;;;;;;;10.50;99.90;;;;;;4994486;28;19980;-71
2022/05/20 04:21:38;;;;;;;;;;;10.50;99.90;;;;;;5013647;28;19925;-71
2022/05/20 04:24:04;;;;;;;;;;;10.40;99.90;;;;;;5013409;28;19948;-71
2022/05/20 04:26:29;;;;;;;;;;;10.40;99.90;;;;;;5013231;28;20365;-72
2022/05/20 04:28:55;;;;;;;;;;;10.40;99.90;;;;;;5012865;28;19925;-72
2022/05/20 04:31:20;;;;;;;;;;;10.40;99.90;;;;;;5012857;28;19933;-72
2022/05/20 04:33:52;;;;;;;;;;;10.40;99.90;;;;;;5013012;28;19933;-72
2022/05/20 04:36:17;;;;;;;;;;;10.40;99.90;;;;;;5009031;28;19925;-72
2022/05/20 04:38:44;;;;;;;;;;;10.30;99.90;;;;;;4993316;28;19932;-71
2022/05/20 04:49:22;;;;;;;;;;;10.30;99.90;;;;;;4991525;28;19996;-71
2022/05/20 04:51:47;;;;;;;;;;;10.30;99.90;;;;;;4992452;28;20013;-71
2022/05/20 04:56:57;;;;;;;;;;;10.30;99.90;;;;;;4993724;28;20016;-71
2022/05/20 04:59:25;;;;;;;;;;;10.40;99.90;;;;;;4992972;28;20444;-72
2022/05/20 05:01:51;;;;;;;;;;;10.50;99.90;;;;;;4997127;28;20068;-71
2022/05/20 05:04:20;;;;;;;;;;;10.40;99.90;;;;;;4998623;28;19925;-70
2022/05/20 05:06:47;;;;;;;;;;;10.50;99.90;;;;;;5002957;28;19979;-71
2022/05/20 05:09:12;;;;;;;;;;;10.50;99.90;;;;;;4999808;28;19952;-71
2022/05/20 05:11:41;;;;;;;;;;;10.60;99.90;;;;;;4998111;28;19984;-72
2022/05/20 05:14:07;;;;;;;;;;;10.60;99.90;;;;;;4998269;28;19925;-71
2022/05/20 05:16:33;;;;;;;;;;;10.80;99.90;;;;;;5008225;28;19969;-71
2022/05/20 05:19:02;;;;;;;;;;;10.90;99.90;;;;;;4991677;28;19972;-72
2022/05/20 05:21:27;;;;;;;;;;;11.00;99.90;;;;;;5011805;28;19925;-70
2022/05/20 05:24:00;;;;;;;;;;;11.20;99.90;;;;;;5021114;28;19932;-70
2022/05/20 05:26:27;;;;;;;;;;;11.20;99.90;;;;;;5002996;28;20037;-71
2022/05/20 05:28:52;;;;;;;;;;;11.30;99.90;;;;;;5022024;28;20008;-71
2022/05/20 05:31:18;;;;;;;;;;;11.30;99.90;;;;;;5021676;28;20052;-68
2022/05/20 05:33:43;;;;;;;;;;;11.30;99.90;;;;;;5011188;28;19929;-69
2022/05/20 05:36:12;;;;;;;;;;;11.40;99.90;;;;;;5017977;28;19976;-68
2022/05/20 05:38:37;;;;;;;;;;;11.50;99.90;;;;;;5011879;28;19925;-70
2022/05/20 05:41:05;;;;;;;;;;;11.50;99.90;;;;;;5011892;28;19954;-73
2022/05/20 05:43:31;;;;;;;;;;;11.60;99.90;;;;;;5000234;28;19929;-71
2022/05/20 05:45:56;;;;;;;;;;;11.60;99.90;;;;;;5001034;28;19925;-74
2022/05/20 05:48:23;;;;;;;;;;;11.70;99.90;;;;;;5012108;28;20266;-69
2022/05/20 05:50:49;;;;;;;;;;;11.70;99.90;;;;;;5011655;28;20373;-73
2022/05/20 05:53:18;;;;;;;;;;;11.90;99.90;;;;;;5011257;28;19926;-69
2022/05/20 05:55:45;;;;;;;;;;;11.90;99.90;;;;;;5012592;28;19932;-67
2022/05/20 05:58:14;;;;;;;;;;;12.00;99.90;;;;;;4994032;28;20377;-68
2022/05/20 06:00:40;;;;;;;;;;;12.10;99.90;;;;;;5008683;28;19925;-70
2022/05/20 06:03:06;;;;;;;;;;;12.20;99.90;;;;;;5020099;28;19933;-75
2022/05/20 06:05:32;;;;;;;;;;;12.20;99.90;;;;;;5019414;28;19933;-70
2022/05/20 06:07:59;;;;;;;;;;;12.40;99.90;;;;;;5021987;28;19925;-73
2022/05/20 06:10:25;;;;;;;;;;;12.50;99.90;;;;;;5024679;28;19929;-69
2022/05/20 06:12:50;;;;;;;;;;;12.60;99.90;;;;;;5001094;28;20012;-69
2022/05/20 06:15:18;;;;;;;;;;;12.80;99.90;;;;;;5000472;28;19925;-68
2022/05/20 06:17:48;;;;;;;;;;;12.90;99.90;;;;;;5034355;28;20381;-70
2022/05/20 06:20:13;;;;;;;;;;;13.20;99.90;;;;;;5015797;28;19937;-68
2022/05/20 06:22:39;;;;;;;;;;;13.40;99.90;;;;;;5012772;28;19928;-69
2022/05/20 06:25:04;;;;;;;;;;;13.50;99.90;;;;;;5035068;28;20376;-69
2022/05/20 06:27:33;;;;;;;;;;;13.60;99.90;;;;;;5021236;28;19929;-69
2022/05/20 06:29:58;;;;;;;;;;;13.70;99.90;;;;;;5017259;28;19972;-70
2022/05/20 06:32:24;;;;;;;;;;;13.80;99.90;;;;;;5019726;28;19925;-71
2022/05/20 06:40:19;;;;;;;;;;;14.20;99.90;;;;;;4997585;28;19925;-74
2022/05/20 06:42:45;;;;;;;;;;;14.40;99.90;;;;;;5028202;28;19979;-75
2022/05/20 06:45:11;;;;;;;;;;;14.40;99.90;;;;;;5000622;28;19969;-73
2022/05/20 06:47:37;;;;;;;;;;;14.80;99.90;;;;;;5001671;28;19925;-74
2022/05/20 06:50:03;;;;;;;;;;;15.10;99.90;;;;;;5012694;28;19971;-71
2022/05/20 06:52:29;;;;;;;;;;;14.70;99.90;;;;;;5025205;28;20411;-71
2022/05/20 06:54:54;;;;;;;;;;;14.80;99.90;;;;;;5008036;28;19925;-72
2022/05/20 06:57:21;;;;;;;;;;;14.90;99.90;;;;;;4998397;28;19997;-72
2022/05/20 06:59:49;;;;;;;;;;;14.90;99.90;;;;;;5029635;28;19921;-70
2022/05/20 07:02:15;;;;;;;;;;;14.90;99.90;;;;;;5021426;28;19926;-72
2022/05/20 07:04:40;;;;;;;;;;;15.10;99.90;;;;;;5023333;28;20146;-71
2022/05/20 07:07:06;;;;;;;;;;;15.10;99.90;;;;;;5008240;28;20016;-71
2022/05/20 07:09:34;;;;;;;;;;;15.30;99.90;;;;;;4997901;28;19932;-72
2022/05/20 07:12:00;;;;;;;;;;;15.20;99.90;;;;;;4998626;28;19933;-72
2022/05/20 07:14:26;;;;;;;;;;;15.40;99.90;;;;;;5023223;28;19925;-72
2022/05/20 07:16:51;;;;;;;;;;;15.60;99.90;;;;;;5018831;28;19933;-73
2022/05/20 07:19:17;;;;;;;;;;;16.50;99.90;;;;;;5028801;28;19932;-71
2022/05/20 07:21:43;;;;;;;;;;;16.10;99.90;;;;;;5032997;28;19933;-71
2022/05/20 07:24:08;;;;;;;;;;;16.60;99.90;;;;;;5033915;28;20014;-72
2022/05/20 07:26:37;;;;;;;;;;;17.00;99.90;;;;;;5034977;28;20372;-72
2022/05/20 07:29:04;;;;;;;;;;;17.70;99.90;;;;;;5028071;28;19931;-70
2022/05/20 07:31:29;;;;;;;;;;;18.30;99.90;;;;;;5023093;28;20014;-72
2022/05/20 07:33:55;;;;;;;;;;;19.00;99.90;;;;;;5014973;28;19925;-72
2022/05/20 07:36:21;;;;;;;;;;;19.40;99.90;;;;;;5021391;28;20024;-71
2022/05/20 07:38:50;;;;;;;;;;;19.90;99.90;;;;;;5033606;28;19987;-71
2022/05/20 07:41:17;;;;;;;;;;;19.90;99.90;;;;;;5023777;28;20020;-70
2022/05/20 07:43:42;;;;;;;;;;;19.90;99.90;;;;;;5031447;28;19979;-71
2022/05/20 07:46:08;;;;;;;;;;;19.80;99.90;;;;;;5021235;28;20320;-72
2022/05/20 07:48:34;;;;;;;;;;;19.50;99.90;;;;;;5016767;28;19971;-69
2022/05/20 07:51:01;;;;;;;;;;;19.40;99.90;;;;;;4998628;28;19926;-73
2022/05/20 07:53:35;;;;;;;;;;;19.60;99.90;;;;;;5006388;28;19921;-72
2022/05/20 07:56:06;;;;;;;;;;;20.10;99.90;;;;;;5017827;28;20373;-73
2022/05/20 07:58:34;;;;;;;;;;;20.30;99.60;;;;;;5033461;28;19925;-70
2022/05/20 08:01:01;;;;;;;;;;;20.40;99.90;;;;;;5015130;28;19925;-71
2022/05/20 08:06:15;;;;;;;;;;;20.40;99.40;;;;;;5009977;28;19925;-72
2022/05/20 08:08:41;;;;;;;;;;;20.30;98.70;;;;;;5013321;28;19977;-70
2022/05/20 08:11:07;;;;;;;;;;;20.10;99.50;;;;;;4996589;28;19929;-71
2022/05/20 08:13:32;;;;;;;;;;;19.90;99.90;;;;;;5014118;28;20436;-71
2022/05/20 08:15:58;;;;;;;;;;;19.80;99.90;;;;;;5016748;28;20277;-73
2022/05/20 08:18:25;;;;;;;;;;;20.20;99.90;;;;;;5021495;28;19925;-70
2022/05/20 08:20:50;;;;;;;;;;;19.90;99.90;;;;;;5004413;28;19930;-72
2022/05/20 08:23:17;;;;;;;;;;;20.20;99.90;;;;;;5010700;28;20342;-71
2022/05/20 08:25:42;;;;;;;;;;;20.20;99.90;;;;;;5000799;28;19921;-71
2022/05/20 08:28:08;;;;;;;;;;;20.40;99.90;;;;;;5004440;28;19926;-71
2022/05/20 08:30:33;;;;;;;;;;;21.00;99.10;;;;;;5023843;28;19925;-72
2022/05/20 08:32:59;;;;;;;;;;;20.90;99.00;;;;;;5010167;28;19925;-72
2022/05/20 08:35:26;;;;;;;;;;;20.80;98.80;;;;;;5014926;28;19932;-72
2022/05/20 08:37:51;;;;;;;;;;;20.80;98.90;;;;;;5029300;28;20035;-72
2022/05/20 08:40:22;;;;;;;;;;;20.60;99.00;;;;;;5020096;28;20017;-72
2022/05/20 08:42:49;;;;;;;;;;;20.40;99.30;;;;;;5002884;28;19951;-71
2022/05/20 08:45:15;;;;;;;;;;;20.60;99.60;;;;;;5021572;28;19928;-72
2022/05/20 08:47:42;;;;;;;;;;;21.00;98.40;;;;;;5002924;28;20345;-72
2022/05/20 08:50:12;;;;;;;;;;;21.10;98.70;;;;;;5194233;23;20374;-72
2022/05/20 08:52:38;;;;;;;;;;;21.30;99.00;;;;;;5001695;28;19929;-72
2022/05/20 08:55:04;;;;;;;;;;;21.40;98.20;;;;;;4977957;23;19932;-72
2022/05/20 08:57:32;;;;;;;;;;;21.30;99.00;;;;;;4942033;29;19941;-72
2022/05/20 08:59:57;;;;;;;;;;;21.70;99.20;;;;;;4958531;28;19931;-73
2022/05/20 09:05:12;;;;;;;;;;;21.40;97.10;;;;;;4988052;23;19933;-70
2022/05/20 09:07:58;;;;;;;;;;;21.60;97.40;;;;;;5015498;28;20315;-76
2022/05/20 09:10:29;;;;;;;;;;;21.60;96.60;;;;;;5016823;28;20388;-78
2022/05/20 09:13:04;;;;;;;;;;;21.50;97.40;;;;;;5017257;28;19925;-74
2022/05/20 09:15:46;;;;;;;;;;;21.70;96.90;;;;;;5033579;28;19929;-77
2022/05/20 09:18:13;;;;;;;;;;;21.40;96.00;;;;;;5015638;28;19964;-75
2022/05/20 09:20:46;;;;;;;;;;;21.10;98.00;;;;;;5016558;28;19925;-75
2022/05/20 09:23:12;;;;;;;;;;;21.20;96.90;;;;;;5032895;28;19936;-76
2022/05/20 09:25:46;;;;;;;;;;;21.10;96.70;;;;;;5035628;28;19929;-74
2022/05/20 09:30:41;;;;;;;;;;;20.40;96.80;;;;;;5124636;23;19979;-74
2022/05/20 09:33:11;;;;;;;;;;;20.50;97.40;;;;;;5012815;28;19979;-75
2022/05/20 09:35:37;;;;;;;;;;;20.40;98.20;;;;;;5013158;28;20373;-70
2022/05/20 09:38:08;;;;;;;;;;;20.10;98.00;;;;;;5012840;28;20040;-72
2022/05/20 09:40:47;;;;;;;;;;;20.20;97.60;;;;;;5012224;28;19979;-71
2022/05/20 09:43:30;;;;;;;;;;;19.90;97.80;;;;;;5010166;28;19932;-72
2022/05/20 09:45:57;;;;;;;;;;;19.60;99.10;;;;;;5001472;28;20440;-72
2022/05/20 09:48:31;;;;;;;;;;;19.50;98.80;;;;;;4991812;28;19926;-71
2022/05/20 09:51:03;;;;;;;;;;;19.40;99.10;;;;;;5015560;28;19926;-71
2022/05/20 09:53:36;;;;;;;;;;;19.60;98.20;;;;;;5014540;28;19937;-71
2022/05/20 09:56:22;;;;;;;;;;;19.20;99.00;;;;;;5014344;28;19929;-71
2022/05/20 09:59:07;;;;;;;;;;;19.20;99.10;;;;;;5015736;28;20035;-71
2022/05/20 10:01:32;;;;;;;;;;;19.10;99.50;;;;;;5016794;28;20020;-72
2022/05/20 10:04:02;;;;;;;;;;;19.00;99.50;;;;;;5016932;28;20026;-71
2022/05/20 10:06:35;;;;;;;;;;;19.20;99.40;;;;;;5014533;28;19926;-71
2022/05/20 10:09:24;;;;;;;;;;;19.10;99.40;;;;;;5015086;28;19926;-72
2022/05/20 10:12:01;;;;;;;;;;;19.10;99.10;;;;;;5016715;28;20455;-71
2022/05/20 10:14:42;;;;;;;;;;;19.00;99.60;;;;;;5015596;28;19925;-72
2022/05/20 10:17:20;;;;;;;;;;;18.80;99.70;;;;;;5015226;28;20019;-71
2022/05/20 10:20:08;;;;;;;;;;;18.90;99.90;;;;;;5030708;28;20381;-73
2022/05/20 10:22:49;;;;;;;;;;;19.00;99.60;;;;;;5017713;28;19933;-71
2022/05/20 10:25:29;;;;;;;;;;;19.00;99.50;;;;;;5015481;28;20019;-71
2022/05/20 10:32:34;;;;;;;;;;;18.60;99.90;;;;;;5015619;28;19987;-71
2022/05/20 10:33:52;;;;;;;;;;;18.80;99.40;;;;;;5015720;28;20026;-71
2022/05/20 10:36:24;;;;;;;;;;;18.70;99.00;;;;;;4999555;28;19994;-71
2022/05/20 10:38:49;;;;;;;;;;;18.70;99.10;;;;;;4996368;28;20396;-71
2022/05/20 10:41:25;;;;;;;;;;;18.70;99.40;;;;;;4998199;28;20052;-71
2022/05/20 10:50:02;;;;;;;;;;;18.60;99.60;;;;;;5015786;28;19925;-71
2022/05/20 10:52:46;;;;;;;;;;;18.50;99.50;;;;;;5013054;28;20059;-71
2022/05/20 10:55:27;;;;;;;;;;;18.50;99.90;;;;;;5015613;28;19949;-71
2022/05/20 10:58:11;;;;;;;;;;;18.60;99.20;;;;;;5016371;28;19933;-72
2022/05/20 11:00:52;;;;;;;;;;;18.70;98.40;;;;;;5015191;28;19926;-71
2022/05/20 11:03:37;;;;;;;;;;;18.60;99.10;;;;;;4993810;28;19926;-71
2022/05/20 11:06:25;;;;;;;;;;;18.60;99.80;;;;;;4995140;28;20033;-71
2022/05/20 11:09:00;;;;;;;;;;;18.60;99.90;;;;;;4994778;28;20285;-71
2022/05/20 11:11:40;;;;;;;;;;;18.80;99.50;;;;;;5001625;28;19925;-71
2022/05/20 11:14:30;;;;;;;;;;;18.80;99.10;;;;;;5016035;28;20284;-71
2022/05/20 11:16:58;;;;;;;;;;;18.80;99.40;;;;;;5014982;28;20403;-72
2022/05/20 11:19:42;;;;;;;;;;;18.90;99.10;;;;;;5015629;28;19926;-71
2022/05/20 11:22:26;;;;;;;;;;;19.00;99.80;;;;;;5015563;28;19934;-71
2022/05/20 11:25:10;;;;;;;;;;;19.20;99.30;;;;;;5014646;28;20024;-71
2022/05/20 11:27:54;;;;;;;;;;;19.20;98.40;;;;;;5015171;28;19925;-71
2022/05/20 11:30:20;;;;;;;;;;;19.30;99.10;;;;;;5013434;28;19925;-71
2022/05/20 11:33:00;;;;;;;;;;;19.40;98.70;;;;;;5014505;28;19929;-72
2022/05/20 11:35:44;;;;;;;;;;;19.30;99.00;;;;;;5015151;28;20379;-72
2022/05/20 11:38:16;;;;;;;;;;;19.30;98.90;;;;;;5013323;28;20373;-71
2022/05/20 11:40:47;;;;;;;;;;;19.40;98.70;;;;;;5012379;28;19932;-71
2022/05/20 11:43:42;;;;;;;;;;;19.40;99.50;;;;;;5013922;28;19932;-71
2022/05/20 11:46:10;;;;;;;;;;;19.30;98.00;;;;;;5013017;28;19926;-71
2022/05/20 11:49:08;;;;;;;;;;;19.30;97.70;;;;;;5014155;28;19932;-71
2022/05/20 11:51:53;;;;;;;;;;;19.30;98.10;;;;;;5012962;28;19925;-71
2022/05/20 11:54:26;;;;;;;;;;;19.40;98.10;;;;;;5015625;28;19959;-71
2022/05/20 11:57:00;;;;;;;;;;;19.60;99.00;;;;;;5014556;28;19933;-71
2022/05/20 11:59:32;;;;;;;;;;;19.70;98.50;;;;;;5014684;28;19949;-71
2022/05/20 12:01:58;;;;;;;;;;;19.80;99.10;;;;;;5012376;28;19933;-71
2022/05/20 12:04:27;;;;;;;;;;;20.00;99.20;;;;;;5015622;28;19926;-71
2022/05/20 12:06:58;;;;;;;;;;;20.10;99.10;;;;;;5015169;28;19929;-71
2022/05/20 12:09:30;;;;;;;;;;;20.10;98.40;;;;;;5014379;28;19925;-71
2022/05/20 12:12:05;;;;;;;;;;;20.10;98.60;;;;;;5013615;28;19921;-71
2022/05/20 12:14:51;;;;;;;;;;;19.90;98.00;;;;;;5013775;28;19925;-71
2022/05/20 12:17:28;;;;;;;;;;;19.70;96.90;;;;;;5011181;28;19928;-71
2022/05/20 12:25:46;;;;;;;;;;;19.20;97.10;;;;;;5012157;28;19973;-71
2022/05/20 12:28:21;;;;;;;;;;;19.10;98.20;;;;;;5011604;28;19975;-71
2022/05/20 12:31:07;;;;;;;;;;;19.00;98.40;;;;;;5012484;28;19929;-71
2022/05/20 12:33:47;;;;;;;;;;;19.00;99.30;;;;;;5012508;28;20371;-71
2022/05/20 12:36:25;;;;;;;;;;;18.90;99.10;;;;;;5013419;28;19930;-71
2022/05/20 12:38:51;;;;;;;;;;;18.90;99.00;;;;;;5012441;28;19932;-71
2022/05/20 12:41:22;;;;;;;;;;;18.80;97.90;;;;;;5029600;28;20011;-71
2022/05/20 12:43:50;;;;;;;;;;;18.90;97.50;;;;;;5028823;28;20093;-71
2022/05/20 12:46:19;;;;;;;;;;;19.00;97.60;;;;;;5013451;28;19945;-71
2022/05/20 12:48:45;;;;;;;;;;;19.20;98.70;;;;;;5012820;28;19925;-71
2022/05/20 12:51:10;;;;;;;;;;;19.10;98.40;;;;;;5014725;28;20328;-72
2022/05/20 12:53:45;;;;;;;;;;;19.10;98.50;;;;;;5012495;28;20427;-71
2022/05/20 12:56:27;;;;;;;;;;;19.10;98.20;;;;;;5011390;28;19973;-71
2022/05/20 12:58:52;;;;;;;;;;;19.40;98.70;;;;;;5012534;28;19926;-71
2022/05/20 13:01:18;;;;;;;;;;;18.90;98.60;;;;;;5012634;28;20235;-71
2022/05/20 13:03:45;;;;;;;;;;;18.80;98.60;;;;;;5011957;28;20381;-71
2022/05/20 13:06:16;;;;;;;;;;;18.70;98.10;;;;;;5013767;28;19921;-72
2022/05/20 13:08:46;;;;;;;;;;;18.50;99.60;;;;;;5012457;28;19933;-71
2022/05/20 13:11:13;;;;;;;;;;;18.40;98.80;;;;;;5013942;28;20016;-71
2022/05/20 13:13:38;;;;;;;;;;;18.30;99.10;;;;;;5012328;28;19922;-71
2022/05/20 13:16:05;;;;;;;;;;;18.20;98.90;;;;;;5013300;28;20376;-71
2022/05/20 13:18:32;;;;;;;;;;;18.10;99.90;;;;;;5013563;28;19928;-71
2022/05/20 13:20:59;;;;;;;;;;;18.00;99.90;;;;;;5013686;28;19925;-70
2022/05/20 13:23:30;;;;;;;;;;;18.00;99.90;;;;;;5006291;28;20024;-71
2022/05/20 13:25:56;;;;;;;;;;;17.90;99.90;;;;;;4994696;28;19934;-70
2022/05/20 13:28:25;;;;;;;;;;;17.80;99.90;;;;;;5011851;28;19979;-71
2022/05/20 13:30:58;;;;;;;;;;;17.80;99.90;;;;;;5013316;28;19925;-74
2022/05/20 13:33:24;;;;;;;;;;;17.70;99.90;;;;;;5011624;28;19985;-70
2022/05/20 13:35:50;;;;;;;;;;;17.60;99.90;;;;;;5012689;28;20361;-70
2022/05/20 13:38:23;;;;;;;;;;;17.50;99.90;;;;;;4994121;28;20013;-70
2022/05/20 13:40:53;;;;;;;;;;;17.40;99.90;;;;;;5013518;28;20270;-71
2022/05/20 13:43:21;;;;;;;;;;;17.40;99.90;;;;;;5010782;28;19964;-73
2022/05/20 13:51:23;;;;;;;;;;;17.20;99.90;;;;;;4998703;28;19926;-73
2022/05/20 13:53:49;;;;;;;;;;;17.20;99.90;;;;;;5005808;28;19930;-74
2022/05/20 13:56:15;;;;;;;;;;;17.10;99.90;;;;;;5012456;28;19972;-74
2022/05/20 13:58:42;;;;;;;;;;;16.90;99.90;;;;;;4995746;28;20340;-72
2022/05/20 14:01:12;;;;;;;;;;;16.80;99.90;;;;;;5012468;28;19925;-73
2022/05/20 14:03:48;;;;;;;;;;;16.80;99.90;;;;;;5000326;28;19925;-72
2022/05/20 14:06:15;;;;;;;;;;;16.80;99.90;;;;;;5008844;28;19926;-72
2022/05/20 14:08:55;;;;;;;;;;;16.80;99.90;;;;;;4996655;28;19932;-72
2022/05/20 14:11:27;;;;;;;;;;;16.80;99.90;;;;;;5006750;28;20400;-73
2022/05/20 14:13:58;;;;;;;;;;;16.70;99.90;;;;;;5027499;28;19932;-71
2022/05/20 14:16:31;;;;;;;;;;;16.60;99.90;;;;;;5011472;28;19925;-72
2022/05/20 14:18:58;;;;;;;;;;;16.60;99.90;;;;;;4996155;28;19983;-73
2022/05/20 14:21:28;;;;;;;;;;;16.60;99.90;;;;;;5002950;28;19933;-73
2022/05/20 14:23:55;;;;;;;;;;;16.60;99.90;;;;;;5011703;28;20036;-72
2022/05/20 14:26:27;;;;;;;;;;;16.70;99.90;;;;;;4999165;28;20266;-73
2022/05/20 14:28:52;;;;;;;;;;;16.50;99.90;;;;;;5012073;28;19922;-73
2022/05/20 14:31:24;;;;;;;;;;;16.50;99.90;;;;;;5005905;28;20372;-73
2022/05/20 14:33:52;;;;;;;;;;;16.50;99.90;;;;;;5010970;28;19929;-71
2022/05/20 14:36:18;;;;;;;;;;;16.40;99.90;;;;;;5003139;28;19925;-71
2022/05/20 14:38:48;;;;;;;;;;;16.60;99.90;;;;;;4999580;28;19933;-72
2022/05/20 14:41:21;;;;;;;;;;;16.20;99.90;;;;;;5014122;28;19995;-70
2022/05/20 14:43:49;;;;;;;;;;;16.10;99.90;;;;;;5016015;28;19952;-70
2022/05/20 14:47:14;;;;;;;;;;;16.00;99.90;;;;;;5007467;28;19968;-71
2022/05/20 14:49:05;;;;;;;;;;;16.00;99.90;;;;;;5014944;28;20305;-71
2022/05/20 14:51:34;;;;;;;;;;;15.70;99.90;;;;;;5007594;28;19921;-68
2022/05/20 14:54:01;;;;;;;;;;;15.60;99.90;;;;;;5007021;28;20293;-72
2022/05/20 14:56:35;;;;;;;;;;;15.60;99.90;;;;;;5011050;28;19922;-71
2022/05/20 14:59:00;;;;;;;;;;;15.50;99.90;;;;;;5008968;28;20392;-71
2022/05/20 15:01:30;;;;;;;;;;;15.40;99.90;;;;;;5003003;28;19968;-71
2022/05/20 15:03:56;;;;;;;;;;;15.20;99.90;;;;;;5013890;28;19925;-71
2022/05/20 15:06:31;;;;;;;;;;;15.10;99.90;;;;;;5013060;28;20411;-70
2022/05/20 15:08:57;;;;;;;;;;;15.00;99.90;;;;;;5014224;28;19956;-70
2022/05/20 15:11:34;;;;;;;;;;;14.80;99.90;;;;;;5006935;28;20051;-70
2022/05/20 15:14:00;;;;;;;;;;;14.60;99.90;;;;;;5009010;28;19987;-70
2022/05/20 15:16:25;;;;;;;;;;;14.40;99.90;;;;;;4999619;28;19955;-70
2022/05/20 15:18:51;;;;;;;;;;;14.40;99.90;;;;;;5013490;28;19925;-71
2022/05/20 15:21:23;;;;;;;;;;;14.20;99.90;;;;;;5013982;28;19925;-71
2022/05/20 15:23:51;;;;;;;;;;;14.20;99.90;;;;;;5008527;28;19929;-71
2022/05/20 15:26:21;;;;;;;;;;;14.10;99.90;;;;;;5009541;28;19968;-71
2022/05/20 15:28:47;;;;;;;;;;;14.00;99.90;;;;;;5009607;28;19925;-70
2022/05/20 15:36:49;;;;;;;;;;;13.90;99.90;;;;;;5008257;28;20309;-71
2022/05/20 15:39:21;;;;;;;;;;;13.80;99.90;;;;;;5001831;28;19932;-71
2022/05/20 15:42:06;;;;;;;;;;;13.80;99.90;;;;;;5014502;28;19992;-73
2022/05/20 15:44:35;;;;;;;;;;;13.70;99.90;;;;;;4979302;28;19932;-72
2022/05/20 15:47:01;;;;;;;;;;;13.60;99.90;;;;;;5012520;28;20044;-71
2022/05/20 15:49:27;;;;;;;;;;;13.60;99.90;;;;;;5005343;28;19921;-70
2022/05/20 15:51:53;;;;;;;;;;;13.60;99.90;;;;;;5013259;28;20348;-70
2022/05/20 15:54:21;;;;;;;;;;;13.60;99.90;;;;;;5010933;28;20332;-72
2022/05/20 15:56:47;;;;;;;;;;;13.60;99.90;;;;;;5008020;28;20381;-71
2022/05/20 15:59:13;;;;;;;;;;;13.70;99.90;;;;;;5000651;28;19925;-71
2022/05/20 16:01:39;;;;;;;;;;;13.60;99.90;;;;;;5002267;28;19937;-72
2022/05/20 16:04:08;;;;;;;;;;;13.60;99.90;;;;;;5012241;28;19925;-71
2022/05/20 16:06:35;;;;;;;;;;;13.50;99.90;;;;;;4994655;28;19925;-73
2022/05/20 16:09:01;;;;;;;;;;;13.50;99.90;;;;;;5013972;28;19930;-72
2022/05/20 16:11:29;;;;;;;;;;;13.40;99.90;;;;;;5013260;28;19932;-71
2022/05/20 16:13:55;;;;;;;;;;;13.30;99.90;;;;;;5000555;28;19926;-74
2022/05/20 16:16:21;;;;;;;;;;;13.30;99.90;;;;;;5004937;28;20013;-70
2022/05/20 16:18:46;;;;;;;;;;;13.30;99.90;;;;;;5002836;28;20452;-70
2022/05/20 16:21:13;;;;;;;;;;;13.40;99.90;;;;;;5012501;28;19956;-69